Time;durP1;ratioP1;P1;durP2;ratioP2;P2;SDS_P1;SDS_P2;PMS_P1;PMS_P2;Temp;Humidity;BMP_temperature;BMP_pressure;BME280_temperature;BME280_humidity;BME280_pressure;Samples;Min_cycle;Max_cycle;Signal;HPM_P1;HPM_P2
2023/10/14 00:01:10;;;;;;;9.30;2.85;;;;;;;7.43;64.65;99623.19;5131277;27;20045;-62
2023/10/14 00:03:36;;;;;;;9.25;2.78;;;;;;;7.43;64.74;99621.38;5129520;27;20036;-62
2023/10/14 00:06:06;;;;;;;8.07;3.30;;;;;;;7.47;64.41;99622.00;5130192;28;20461;-63
2023/10/14 00:08:35;;;;;;;6.43;2.38;;;;;;;7.53;64.32;99618.94;5112332;28;20092;-61
2023/10/14 00:11:04;;;;;;;8.88;2.55;;;;;;;7.52;63.94;99627.88;5115908;28;20340;-61
2023/10/14 00:13:37;;;;;;;6.75;2.92;;;;;;;7.56;63.92;99617.84;5113489;28;20048;-60
2023/10/14 00:16:10;;;;;;;8.60;2.28;;;;;;;7.65;64.10;99625.19;5113976;28;20031;-61
2023/10/14 00:18:36;;;;;;;6.78;2.45;;;;;;;7.64;64.32;99622.63;5118070;28;20110;-61
2023/10/14 00:21:02;;;;;;;8.15;2.40;;;;;;;7.65;63.73;99619.84;5125579;27;20148;-62
2023/10/14 00:23:28;;;;;;;6.40;2.58;;;;;;;7.68;63.84;99621.44;5117607;27;20501;-61
2023/10/14 00:25:54;;;;;;;6.82;2.80;;;;;;;7.71;63.57;99619.41;5133849;27;20039;-60
2023/10/14 00:28:20;;;;;;;6.40;2.47;;;;;;;7.73;63.45;99606.00;5133379;27;20027;-62
2023/10/14 00:30:46;;;;;;;5.35;2.55;;;;;;;7.77;63.60;99610.13;5133193;27;20469;-61
2023/10/14 00:33:12;;;;;;;6.47;2.80;;;;;;;7.77;63.38;99602.13;5134715;27;20353;-63
2023/10/14 00:35:41;;;;;;;5.78;2.60;;;;;;;7.72;63.65;99588.28;5127766;27;20028;-61
2023/10/14 00:38:13;;;;;;;8.30;2.55;;;;;;;7.81;63.87;99597.41;5119847;27;20031;-63
2023/10/14 00:40:39;;;;;;;7.13;2.53;;;;;;;7.82;63.35;99597.31;5133587;27;20023;-62
2023/10/14 00:43:07;;;;;;;6.70;2.30;;;;;;;7.85;63.58;99589.09;5133655;27;20051;-62
2023/10/14 00:45:33;;;;;;;11.13;2.88;;;;;;;7.84;63.43;99589.22;5134499;27;20059;-59
2023/10/14 00:48:01;;;;;;;9.07;2.88;;;;;;;7.87;63.55;99597.81;5129488;27;20027;-61
2023/10/14 00:50:33;;;;;;;5.28;2.60;;;;;;;7.89;63.64;99587.06;5115854;28;20425;-61
2023/10/14 00:53:00;;;;;;;6.00;2.42;;;;;;;7.86;63.49;99585.47;5117971;27;20039;-60
2023/10/14 00:55:35;;;;;;;8.88;3.00;;;;;;;7.93;63.51;99595.66;5115751;28;20032;-62
2023/10/14 00:58:00;;;;;;;7.85;2.38;;;;;;;7.91;63.49;99571.81;5120611;27;20437;-61
2023/10/14 01:00:45;;;;;;;6.45;2.80;;;;;;;7.75;63.36;99548.09;5134746;27;20103;-63
2023/10/14 01:03:15;;;;;;;15.80;2.75;;;;;;;7.93;63.58;99569.00;5100305;27;20035;-61
2023/10/14 01:05:40;;;;;;;7.20;2.90;;;;;;;7.76;63.54;99547.13;5115679;28;20035;-61
2023/10/14 01:08:11;;;;;;;8.52;3.17;;;;;;;7.93;63.58;99577.00;5125188;27;20031;-61
2023/10/14 01:10:41;;;;;;;11.38;3.47;;;;;;;7.88;63.49;99556.88;5124889;27;20106;-62
2023/10/14 01:13:13;;;;;;;8.70;3.03;;;;;;;7.96;63.83;99574.97;5131451;27;20035;-62
2023/10/14 01:15:47;;;;;;;10.52;3.28;;;;;;;7.97;63.50;99568.69;5135597;27;20035;-62
2023/10/14 01:18:14;;;;;;;8.18;3.13;;;;;;;7.95;63.91;99573.28;5134210;27;20525;-61
2023/10/14 01:20:44;;;;;;;9.73;3.45;;;;;;;8.02;63.91;99568.34;5132671;27;20339;-62
2023/10/14 01:23:14;;;;;;;7.18;2.80;;;;;;;7.98;63.60;99561.53;5133534;27;20039;-62
2023/10/14 01:25:51;;;;;;;7.55;2.72;;;;;;;8.02;63.75;99569.19;5135854;27;20019;-62
2023/10/14 01:28:29;;;;;;;9.45;2.72;;;;;;;7.98;63.60;99559.72;5123583;27;20076;-61
2023/10/14 01:33:55;;;;;;;12.15;2.83;;;;;;;8.02;63.59;99561.19;5133850;27;20060;-61
2023/10/14 01:36:24;;;;;;;11.40;3.45;;;;;;;7.99;63.74;99560.56;5135329;27;20019;-61
2023/10/14 01:38:59;;;;;;;8.35;3.25;;;;;;;7.80;63.66;99527.28;5133427;27;20083;-62
2023/10/14 01:41:29;;;;;;;5.07;2.60;;;;;;;8.01;63.64;99566.66;5132043;27;20361;-62
2023/10/14 01:43:58;;;;;;;8.02;3.20;;;;;;;8.00;63.54;99556.94;5131883;27;20166;-62
2023/10/14 01:46:27;;;;;;;8.07;2.90;;;;;;;8.00;63.99;99548.94;5133983;27;20034;-61
2023/10/14 01:48:55;;;;;;;8.95;2.88;;;;;;;7.89;63.89;99537.25;5127607;27;20027;-62
2023/10/14 01:51:20;;;;;;;12.02;2.97;;;;;;;8.01;64.10;99558.66;5132345;27;20039;-61
2023/10/14 01:53:46;;;;;;;8.90;3.05;;;;;;;7.99;64.14;99545.41;5129445;27;20056;-61
2023/10/14 01:56:12;;;;;;;8.20;3.00;;;;;;;8.05;63.88;99557.44;5120020;27;20349;-61
2023/10/14 01:58:40;;;;;;;9.48;3.20;;;;;;;8.05;63.79;99560.13;5128958;27;20026;-62
2023/10/14 02:03:41;;;;;;;7.38;2.53;;;;;;;8.08;64.08;99551.88;5114671;27;20036;-55
2023/10/14 02:06:16;;;;;;;11.23;2.90;;;;;;;7.88;63.68;99508.06;5130682;27;20432;-61
2023/10/14 02:08:54;;;;;;;10.00;2.30;;;;;;;8.21;63.97;99556.31;5128060;27;20059;-62
2023/10/14 02:11:20;;;;;;;12.68;2.88;;;;;;;8.17;63.72;99558.34;5132862;27;20095;-61
2023/10/14 02:13:51;;;;;;;11.70;3.20;;;;;;;8.17;63.42;99553.84;5113215;27;20452;-60
2023/10/14 02:16:25;;;;;;;10.60;2.65;;;;;;;8.17;63.38;99551.19;5114196;28;20027;-60
2023/10/14 02:19:16;;;;;;;5.55;2.10;;;;;;;8.21;63.36;99551.81;5120329;27;20097;-61
2023/10/14 02:21:59;;;;;;;9.10;2.50;;;;;;;8.24;63.30;99540.91;5114375;27;20048;-61
2023/10/14 02:24:29;;;;;;;9.82;2.55;;;;;;;8.21;63.35;99538.47;5113703;27;20039;-61
2023/10/14 02:27:04;;;;;;;6.68;2.42;;;;;;;8.19;63.59;99521.75;5116659;27;20084;-62
2023/10/14 02:29:29;;;;;;;8.48;2.17;;;;;;;8.21;63.83;99519.81;5115587;27;20439;-62
2023/10/14 02:32:00;;;;;;;9.52;2.10;;;;;;;8.23;63.54;99506.38;5113873;28;20107;-61
2023/10/14 02:34:27;;;;;;;8.02;2.65;;;;;;;8.23;63.24;99517.03;5118103;27;20074;-62
2023/10/14 02:36:53;;;;;;;8.32;2.40;;;;;;;8.23;63.68;99519.69;5128872;27;20023;-62
2023/10/14 02:39:29;;;;;;;9.18;2.70;;;;;;;8.22;63.63;99508.16;5130335;27;20030;-62
2023/10/14 02:44:32;;;;;;;6.90;2.50;;;;;;;8.28;63.81;99509.53;5111284;28;20040;-61
2023/10/14 02:47:05;;;;;;;9.57;2.15;;;;;;;8.28;63.31;99501.53;5113940;28;20059;-61
2023/10/14 02:49:41;;;;;;;9.02;2.50;;;;;;;8.30;63.27;99496.91;5127445;27;20034;-62
2023/10/14 02:52:11;;;;;;;;;;;;;;;8.63;62.75;99487.28;5133213;27;20502;-62
2023/10/14 02:54:42;;;;;;;5.40;2.08;;;;;;;8.46;62.58;99489.44;5130166;27;20367;-61
2023/10/14 02:57:27;;;;;;;7.63;2.25;;;;;;;8.35;62.83;99468.06;5118306;27;20035;-57
2023/10/14 02:59:57;;;;;;;13.47;2.83;;;;;;;8.41;62.72;99478.25;5130524;27;20140;-62
2023/10/14 03:02:25;;;;;;;7.78;2.53;;;;;;;8.13;62.90;99445.72;5130834;27;20027;-62
2023/10/14 03:07:35;;;;;;;7.18;2.28;;;;;;;8.26;63.19;99471.47;5133491;27;20357;-61
2023/10/14 03:10:11;;;;;;;10.18;2.53;;;;;;;8.25;63.69;99473.25;5130394;27;20027;-61
2023/10/14 03:12:39;;;;;;;8.88;2.15;;;;;;;8.23;63.42;99472.53;5134204;27;20093;-61
2023/10/14 03:15:19;;;;;;;8.60;2.28;;;;;;;8.29;63.49;99464.06;5130835;27;20384;-61
2023/10/14 03:18:07;;;;;;;7.30;2.20;;;;;;;8.29;63.23;99461.38;5113956;27;20081;-61
2023/10/14 03:20:43;;;;;;;7.15;2.50;;;;;;;8.27;63.44;99449.16;5116972;27;20067;-62
2023/10/14 03:23:23;;;;;;;8.48;2.10;;;;;;;8.26;63.85;99442.94;5126437;27;20037;-62
2023/10/14 03:25:53;;;;;;;6.72;2.20;;;;;;;8.03;63.63;99396.75;5099731;27;20028;-57
2023/10/14 03:28:21;;;;;;;5.95;2.10;;;;;;;8.19;63.59;99418.56;5122576;27;20023;-62
2023/10/14 03:30:55;;;;;;;5.30;2.08;;;;;;;8.26;63.69;99418.94;5131617;27;20167;-61
2023/10/14 03:33:23;;;;;;;7.00;2.72;;;;;;;8.22;63.93;99419.31;5124679;27;20415;-62
2023/10/14 03:35:57;;;;;;;8.27;1.95;;;;;;;8.23;63.48;99413.03;5113082;28;20051;-62
2023/10/14 03:41:18;;;;;;;9.13;2.75;;;;;;;8.24;63.60;99412.88;5124665;28;20420;-61
2023/10/14 03:48:58;;;;;;;7.25;2.00;;;;;;;8.36;63.17;99403.09;5117691;27;20028;-63
2023/10/14 03:51:25;;;;;;;10.82;2.30;;;;;;;8.39;63.04;99396.66;5112805;28;20027;-61
2023/10/14 03:53:56;;;;;;;7.05;2.50;;;;;;;8.33;63.36;99396.19;5113799;28;20028;-62
2023/10/14 03:56:27;;;;;;;5.65;2.42;;;;;;;8.26;63.20;99378.94;5121892;27;20085;-62
2023/10/14 03:58:55;;;;;;;12.38;2.70;;;;;;;8.40;62.86;99406.38;5135852;27;20023;-63
2023/10/14 04:01:29;;;;;;;11.25;2.67;;;;;;;8.44;62.97;99403.34;5135480;27;20027;-61
2023/10/14 04:03:55;;;;;;;8.93;2.88;;;;;;;8.41;62.86;99395.56;5135376;27;20035;-62
2023/10/14 04:06:21;;;;;;;8.75;2.42;;;;;;;8.35;63.10;99388.03;5127116;27;20031;-61
2023/10/14 04:08:51;;;;;;;9.98;2.55;;;;;;;8.44;62.76;99397.16;5118843;27;20031;-61
2023/10/14 04:11:28;;;;;;;9.50;1.98;;;;;;;8.53;62.55;99384.94;5116826;28;20106;-60
2023/10/14 04:14:08;;;;;;;9.85;2.38;;;;;;;8.46;62.53;99379.19;5117875;27;20100;-59
2023/10/14 04:17:09;;;;;;;7.85;2.17;;;;;;;8.50;62.37;99377.19;5117484;27;20501;-63
2023/10/14 04:19:27;;;;;;;12.45;2.35;;;;;;;8.49;62.76;99365.63;5124620;27;20418;-62
2023/10/14 04:21:59;;;;;;;7.57;2.03;;;;;;;8.50;62.45;99359.34;5119690;27;20401;-61
2023/10/14 04:29:51;;;;;;;8.77;2.50;;;;;;;8.58;62.30;99361.41;5134983;27;20111;-62
2023/10/14 04:32:25;;;;;;;6.47;2.33;;;;;;;8.57;62.15;99354.38;5135005;27;20046;-60
2023/10/14 04:34:54;;;;;;;13.40;2.70;;;;;;;8.72;61.81;99350.47;5133376;27;20103;-61
2023/10/14 04:37:20;;;;;;;10.23;2.33;;;;;;;8.71;61.93;99346.13;5120272;27;20034;-63
2023/10/14 04:39:47;;;;;;;10.73;2.30;;;;;;;8.75;61.93;99352.03;5126783;27;20039;-65
2023/10/14 04:45:16;;;;;;;8.52;2.63;;;;;;;8.80;61.71;99339.19;5134661;27;20065;-61
2023/10/14 04:47:36;;;;;;;12.75;2.67;;;;;;;8.94;61.41;99330.06;5132455;27;20047;-62
2023/10/14 04:50:10;;;;;;;13.55;2.50;;;;;;;9.02;61.16;99340.06;5121126;27;20042;-61
2023/10/14 04:52:38;;;;;;;7.63;2.40;;;;;;;9.05;60.89;99330.00;5116125;28;20370;-61
2023/10/14 04:57:51;;;;;;;11.35;2.58;;;;;;;9.15;60.45;99339.91;5118259;27;20367;-56
2023/10/14 05:00:31;;;;;;;9.60;2.58;;;;;;;9.25;60.42;99326.66;5115999;27;20032;-60
2023/10/14 05:02:59;;;;;;;8.15;2.53;;;;;;;9.41;60.05;99315.53;5102919;27;20084;-61
2023/10/14 05:05:32;;;;;;;7.45;2.65;;;;;;;9.49;59.52;99318.41;5116360;27;20092;-58
2023/10/14 05:08:04;;;;;;;7.18;2.30;;;;;;;9.62;59.08;99308.34;5134416;27;20525;-63
2023/10/14 05:10:29;;;;;;;8.60;2.42;;;;;;;9.55;58.46;99277.78;5129787;27;20056;-61
2023/10/14 05:12:55;;;;;;;9.43;2.63;;;;;;;9.75;58.44;99301.97;5135058;27;20430;-60
2023/10/14 05:15:25;;;;;;;9.75;2.47;;;;;;;9.77;58.67;99300.03;5133316;27;20035;-60
2023/10/14 05:17:52;;;;;;;11.18;2.70;;;;;;;9.79;58.53;99286.53;5115143;27;20429;-61
2023/10/14 05:21:02;;;;;;;7.43;2.55;;;;;;;9.86;58.26;99277.00;5115611;27;20058;-60
2023/10/14 05:23:11;;;;;;;10.98;2.60;;;;;;;9.97;57.72;99273.38;5116351;27;20063;-62
2023/10/14 05:25:39;;;;;;;12.05;3.13;;;;;;;10.04;57.67;99261.16;5126730;27;20043;-61
2023/10/14 05:28:06;;;;;;;10.52;2.60;;;;;;;10.12;57.66;99261.31;5116972;27;20100;-62
2023/10/14 05:30:33;;;;;;;11.23;2.70;;;;;;;10.15;57.32;99266.44;5134145;27;20387;-60
2023/10/14 05:33:06;;;;;;;7.88;2.88;;;;;;;10.16;57.05;99261.91;5133315;27;20412;-61
2023/10/14 05:35:42;;;;;;;9.02;3.10;;;;;;;10.24;57.29;99263.91;5094687;28;20036;-61
2023/10/14 05:38:11;;;;;;;7.72;2.38;;;;;;;10.17;57.46;99255.59;5129218;27;20042;-61
2023/10/14 05:40:41;;;;;;;10.88;2.40;;;;;;;10.02;57.03;99212.31;5115171;28;20833;-62
2023/10/14 05:43:07;;;;;;;10.32;3.33;;;;;;;10.26;57.20;99261.94;5115870;27;20087;-61
2023/10/14 05:45:34;;;;;;;8.85;3.05;;;;;;;10.35;56.95;99258.44;5114836;28;20035;-61
2023/10/14 05:48:03;;;;;;;10.50;2.78;;;;;;;10.39;56.62;99251.88;5116914;27;20046;-61
2023/10/14 05:50:33;;;;;;;7.82;2.20;;;;;;;10.53;56.38;99257.81;5124157;27;20035;-63
2023/10/14 05:53:00;;;;;;;9.95;2.53;;;;;;;10.56;56.51;99246.84;5114942;27;20116;-62
2023/10/14 05:55:29;;;;;;;8.70;3.00;;;;;;;10.54;56.19;99236.28;5115356;27;20027;-63
2023/10/14 05:58:00;;;;;;;10.75;2.67;;;;;;;10.53;56.26;99231.94;5115872;27;20118;-62
2023/10/14 06:00:27;;;;;;;11.43;3.05;;;;;;;10.64;56.31;99222.91;5114705;27;20465;-60
2023/10/14 06:02:57;;;;;;;9.95;2.85;;;;;;;10.48;56.13;99183.28;5115531;27;20027;-62
2023/10/14 06:05:24;;;;;;;12.20;3.10;;;;;;;10.69;56.33;99226.03;5115352;27;20027;-62
2023/10/14 06:07:59;;;;;;;8.48;2.72;;;;;;;10.50;56.22;99183.16;5115212;27;20027;-60
2023/10/14 06:10:29;;;;;;;9.52;2.75;;;;;;;10.77;56.09;99201.22;5115529;27;20036;-63
2023/10/14 06:12:56;;;;;;;13.52;2.60;;;;;;;10.82;56.50;99204.31;5115620;27;20035;-62
2023/10/14 06:15:22;;;;;;;9.77;3.00;;;;;;;10.90;56.09;99206.31;5115264;27;20188;-61
2023/10/14 06:17:50;;;;;;;11.55;2.75;;;;;;;10.93;56.51;99207.84;5129440;27;20060;-62
2023/10/14 06:20:20;;;;;;;8.55;2.40;;;;;;;10.81;56.88;99185.72;5120623;27;20035;-61
2023/10/14 06:22:46;;;;;;;14.85;3.30;;;;;;;10.74;57.43;99167.53;5125704;27;20469;-62
2023/10/14 06:25:15;;;;;;;8.95;2.90;;;;;;;10.66;58.11;99194.19;5133267;27;20030;-62
2023/10/14 06:27:45;;;;;;;11.10;3.03;;;;;;;10.59;58.68;99183.19;5122854;27;20031;-61
2023/10/14 06:30:20;;;;;;;11.05;2.85;;;;;;;10.56;58.73;99182.59;5115297;27;20035;-61
2023/10/14 06:32:58;;;;;;;10.80;3.15;;;;;;;10.52;59.71;99181.19;5113973;27;20030;-61
2023/10/14 06:35:26;;;;;;;10.15;2.95;;;;;;;10.39;59.72;99155.53;5114905;27;20381;-62
2023/10/14 06:37:53;;;;;;;11.85;2.72;;;;;;;10.38;60.36;99171.72;5115978;27;20107;-60
2023/10/14 06:40:19;;;;;;;10.98;3.22;;;;;;;10.33;60.46;99158.75;5113954;28;20110;-60
2023/10/14 06:42:49;;;;;;;9.70;2.92;;;;;;;10.24;61.37;99157.75;5113916;27;20426;-64
2023/10/14 06:45:18;;;;;;;8.95;3.00;;;;;;;10.17;61.46;99152.13;5115098;27;20093;-64
2023/10/14 06:47:51;;;;;;;8.50;2.88;;;;;;;10.22;61.53;99142.81;5115028;27;20070;-65
2023/10/14 06:50:23;;;;;;;12.57;2.85;;;;;;;10.25;61.13;99142.53;5115442;27;20438;-64
2023/10/14 06:52:53;;;;;;;9.85;3.03;;;;;;;10.25;61.40;99131.84;5114869;27;20028;-64
2023/10/14 06:55:23;;;;;;;8.52;2.78;;;;;;;10.18;61.61;99127.06;5114803;27;20449;-65
2023/10/14 06:57:51;;;;;;;14.02;2.80;;;;;;;10.15;61.89;99127.34;5115914;27;20015;-64
2023/10/14 07:00:25;;;;;;;10.55;2.90;;;;;;;9.97;62.33;99080.84;5117941;27;20069;-66
2023/10/14 07:02:53;;;;;;;10.38;2.75;;;;;;;9.97;62.38;99078.19;5131575;27;20026;-64
2023/10/14 07:05:19;;;;;;;9.43;3.13;;;;;;;10.14;62.16;99098.03;5132431;27;20035;-64
2023/10/14 07:07:46;;;;;;;11.52;3.10;;;;;;;10.12;63.00;99100.84;5131284;27;20026;-64
2023/10/14 07:10:13;;;;;;;12.50;2.65;;;;;;;10.15;62.55;99100.59;5133179;27;20035;-64
2023/10/14 07:12:38;;;;;;;11.85;2.88;;;;;;;10.14;63.45;99090.00;5133685;27;20460;-65
2023/10/14 07:15:12;;;;;;;10.07;3.15;;;;;;;10.12;63.54;99079.44;5130169;27;20050;-64
2023/10/14 07:17:42;;;;;;;11.27;2.97;;;;;;;10.27;63.33;99079.91;5130957;27;20038;-63
2023/10/14 07:20:11;;;;;;;10.05;2.60;;;;;;;10.37;63.29;99071.88;5122016;27;20450;-65
2023/10/14 07:22:42;;;;;;;12.70;3.53;;;;;;;10.30;62.93;99039.47;5130823;27;20051;-65
2023/10/14 07:25:09;;;;;;;15.43;3.42;;;;;;;10.24;62.85;99031.16;5116979;27;20487;-65
2023/10/14 07:27:37;;;;;;;11.88;3.50;;;;;;;10.42;63.23;99052.72;5125313;27;20039;-64
2023/10/14 07:30:16;;;;;;;8.20;3.00;;;;;;;10.23;63.36;99014.25;5116879;27;20032;-65
2023/10/14 07:32:51;;;;;;;7.43;2.47;;;;;;;10.47;63.34;99040.63;5124342;27;20042;-64
2023/10/14 07:35:17;;;;;;;10.30;3.08;;;;;;;10.55;63.35;99036.38;5121729;27;20047;-63
2023/10/14 07:37:45;;;;;;;9.75;2.70;;;;;;;10.59;63.27;99043.13;5114166;28;20036;-66
2023/10/14 07:40:22;;;;;;;12.30;3.53;;;;;;;10.62;63.65;99032.16;5115162;28;20445;-64
2023/10/14 07:42:53;;;;;;;13.68;3.15;;;;;;;10.59;64.20;99041.31;5132020;28;20031;-65
2023/10/14 07:45:28;;;;;;;8.75;3.17;;;;;;;10.63;64.33;99031.16;5092979;28;20124;-65
2023/10/14 07:47:57;;;;;;;12.07;2.97;;;;;;;10.64;63.92;99019.47;5117483;28;20449;-63
2023/10/14 07:50:24;;;;;;;7.70;2.97;;;;;;;10.61;64.75;99023.28;5131868;27;20065;-65
2023/10/14 07:52:51;;;;;;;15.75;3.30;;;;;;;10.58;64.64;99023.56;5131624;27;20050;-64
2023/10/14 07:55:22;;;;;;;10.30;3.05;;;;;;;10.55;64.94;99020.31;5115954;27;20027;-66
2023/10/14 07:57:48;;;;;;;13.32;3.40;;;;;;;10.50;65.46;99018.09;5126574;28;20027;-64
2023/10/14 08:00:15;;;;;;;9.70;3.35;;;;;;;10.42;65.61;98994.72;5129281;27;20035;-63
2023/10/14 08:02:42;;;;;;;14.45;3.65;;;;;;;10.43;65.65;98991.06;5130612;27;20031;-64
2023/10/14 08:05:09;;;;;;;10.05;3.42;;;;;;;10.38;66.39;98979.91;5122588;28;20027;-62
2023/10/14 08:07:40;;;;;;;11.32;3.85;;;;;;;10.36;66.27;98967.66;5121181;27;20027;-62
2023/10/14 08:10:18;;;;;;;9.07;3.63;;;;;;;10.47;66.27;98980.88;5128871;28;20039;-63
2023/10/14 08:12:52;;;;;;;14.18;3.63;;;;;;;10.43;66.95;98964.28;5131273;27;20038;-64
2023/10/14 08:15:18;;;;;;;9.80;3.30;;;;;;;10.29;67.70;98964.69;5127740;27;20441;-64
2023/10/14 08:17:45;;;;;;;9.02;3.55;;;;;;;10.27;68.17;98956.84;5124559;28;20042;-64
2023/10/14 08:20:13;;;;;;;9.10;3.38;;;;;;;10.32;68.36;98953.72;5130274;28;20130;-63
2023/10/14 08:22:46;;;;;;;10.27;3.30;;;;;;;10.40;67.89;98953.88;5131369;27;20057;-64
2023/10/14 08:25:12;;;;;;;9.77;3.35;;;;;;;10.37;68.01;98948.78;5091336;28;20147;-64
2023/10/14 08:27:40;;;;;;;9.63;3.33;;;;;;;10.14;68.13;98911.66;5115190;28;20023;-66
2023/10/14 08:30:13;;;;;;;9.27;3.45;;;;;;;10.34;68.13;98952.59;5126183;28;20027;-65
2023/10/14 08:32:43;;;;;;;9.52;3.63;;;;;;;10.30;68.81;98953.88;5113736;27;20054;-63
2023/10/14 08:35:16;;;;;;;10.13;3.65;;;;;;;10.13;69.32;98917.16;5109926;28;20082;-64
2023/10/14 08:37:48;;;;;;;10.27;3.90;;;;;;;10.38;68.59;98939.78;5117118;28;20084;-64
2023/10/14 08:40:19;;;;;;;11.52;3.95;;;;;;;10.34;69.33;98927.66;5090410;28;20028;-63
2023/10/14 08:42:50;;;;;;;11.25;3.95;;;;;;;10.29;68.96;98887.13;5099492;27;20039;-62
2023/10/14 08:45:18;;;;;;;12.85;4.28;;;;;;;10.52;69.12;98922.44;5134745;27;20512;-64
2023/10/14 08:47:46;;;;;;;15.98;4.10;;;;;;;10.52;69.50;98913.56;5128664;27;20445;-65
2023/10/14 08:50:15;;;;;;;10.43;3.58;;;;;;;10.37;69.12;98879.22;5135865;27;20035;-64
2023/10/14 08:52:45;;;;;;;11.10;3.70;;;;;;;10.59;68.96;98926.22;5131398;27;20419;-65
2023/10/14 08:55:19;;;;;;;10.30;3.60;;;;;;;10.60;69.07;98921.69;5113737;27;20036;-65
2023/10/14 08:57:46;;;;;;;11.52;4.60;;;;;;;10.54;69.35;98906.22;5118468;27;20035;-64
2023/10/14 09:00:20;;;;;;;10.15;4.18;;;;;;;10.71;69.04;98901.91;5133754;27;20031;-65
2023/10/14 09:02:51;;;;;;;10.25;4.15;;;;;;;10.75;69.05;98898.81;5121978;27;20035;-64
2023/10/14 09:05:17;;;;;;;10.10;4.53;;;;;;;10.73;69.44;98910.66;5102268;27;20353;-64
2023/10/14 09:07:48;;;;;;;12.80;4.43;;;;;;;10.90;68.52;98906.38;5116417;27;20035;-66
2023/10/14 09:10:16;;;;;;;10.43;4.03;;;;;;;10.90;68.30;98898.31;5133782;27;20038;-65
2023/10/14 09:12:52;;;;;;;11.93;4.25;;;;;;;11.11;68.23;98903.41;5116576;27;20028;-65
2023/10/14 09:15:20;;;;;;;12.10;3.70;;;;;;;11.10;68.02;98895.53;5113923;27;20028;-66
2023/10/14 09:17:47;;;;;;;10.60;4.50;;;;;;;11.18;67.80;98900.97;5116079;27;20024;-65
2023/10/14 09:20:37;;;;;;;11.38;4.25;;;;;;;11.39;67.46;98884.59;5116212;27;20031;-64
2023/10/14 09:23:15;;;;;;;11.43;4.20;;;;;;;11.49;67.03;98873.81;5115882;27;20031;-64
2023/10/14 09:25:58;;;;;;;12.02;4.30;;;;;;;11.54;67.08;98858.09;5116009;27;20101;-66
2023/10/14 09:28:34;;;;;;;9.75;4.55;;;;;;;11.83;66.39;98854.34;5119745;27;20035;-63
2023/10/14 09:31:07;;;;;;;8.68;3.90;;;;;;;11.99;65.54;98868.84;5134816;27;20031;-63
2023/10/14 09:33:35;;;;;;;13.55;4.47;;;;;;;12.08;64.84;98840.28;5127653;27;20361;-66
2023/10/14 09:36:04;;;;;;;10.13;4.30;;;;;;;12.12;65.01;98841.66;5118887;27;20464;-64
2023/10/14 09:38:34;;;;;;;12.20;4.45;;;;;;;12.26;64.13;98859.00;5119008;27;20374;-66
2023/10/14 09:41:04;;;;;;;8.45;3.88;;;;;;;12.32;64.03;98826.19;5127176;27;20040;-64
2023/10/14 09:43:32;;;;;;;7.32;3.95;;;;;;;12.09;64.29;98816.00;5107337;27;20039;-65
2023/10/14 09:45:59;;;;;;;8.45;4.10;;;;;;;12.39;63.85;98816.47;5114712;27;20059;-64
2023/10/14 09:48:29;;;;;;;13.60;4.03;;;;;;;12.46;63.85;98852.41;5123862;27;20031;-64
2023/10/14 09:51:02;;;;;;;10.07;3.72;;;;;;;12.67;63.56;98837.72;5135505;27;20498;-65
2023/10/14 09:53:33;;;;;;;15.35;4.38;;;;;;;12.96;62.72;98812.28;5132131;27;20475;-63
2023/10/14 09:56:19;;;;;;;10.80;3.78;;;;;;;13.10;61.80;98828.81;5132756;27;20031;-63
2023/10/14 09:58:46;;;;;;;;;;;;;;;13.73;60.98;98829.19;5131563;27;20020;-65
2023/10/14 10:01:18;;;;;;;8.25;3.92;;;;;;;13.77;59.98;98817.13;5129915;27;20274;-64
2023/10/14 10:04:12;;;;;;;11.02;4.00;;;;;;;14.03;59.30;98856.44;5117160;27;20122;-66
2023/10/14 10:06:56;;;;;;;11.75;4.07;;;;;;;14.25;58.49;98864.81;5118195;27;20031;-65
2023/10/14 10:09:49;;;;;;;8.77;3.90;;;;;;;14.32;58.96;98865.81;5133129;27;20046;-66
2023/10/14 10:12:17;;;;;;;12.70;4.28;;;;;;;14.21;59.03;98864.31;5132085;27;20121;-64
2023/10/14 10:14:43;;;;;;;9.93;3.72;;;;;;;14.11;59.22;98840.25;5132718;27;20050;-65
2023/10/14 10:17:15;;;;;;;8.43;3.92;;;;;;;14.19;59.29;98845.63;5134089;27;20034;-64
2023/10/14 10:20:12;;;;;;;8.25;3.53;;;;;;;14.29;59.41;98855.38;5132428;27;20027;-64
2023/10/14 10:22:50;;;;;;;8.05;3.55;;;;;;;14.06;59.12;98797.69;5116176;27;20474;-64
2023/10/14 10:25:17;;;;;;;9.95;4.25;;;;;;;14.07;59.12;98806.63;5113408;27;20137;-63
2023/10/14 10:27:43;;;;;;;7.32;3.88;;;;;;;14.18;59.04;98832.34;5112884;28;20028;-63
2023/10/14 10:30:13;;;;;;;11.30;4.13;;;;;;;14.17;59.89;98836.88;5115488;27;20038;-65
2023/10/14 10:32:39;;;;;;;8.57;3.80;;;;;;;14.12;59.87;98823.09;5123967;27;20047;-64
2023/10/14 10:35:10;;;;;;;8.45;3.95;;;;;;;14.18;60.00;98824.28;5118215;27;20046;-65
2023/10/14 10:37:50;;;;;;;7.82;3.90;;;;;;;14.16;59.96;98824.44;5130252;27;20525;-64
2023/10/14 10:40:25;;;;;;;7.47;3.55;;;;;;;14.03;59.77;98818.75;5113387;28;20031;-65
2023/10/14 10:42:54;;;;;;;9.18;3.95;;;;;;;13.97;60.32;98827.50;5111983;28;20566;-65
2023/10/14 10:45:21;;;;;;;7.82;3.75;;;;;;;13.88;60.33;98826.69;5126257;27;20046;-65
2023/10/14 10:48:03;;;;;;;9.68;3.95;;;;;;;13.81;60.61;98837.28;5132157;27;20038;-65
2023/10/14 10:50:37;;;;;;;9.63;4.50;;;;;;;13.70;61.44;98825.00;5120900;27;20060;-63
2023/10/14 10:53:05;;;;;;;8.43;3.45;;;;;;;13.71;61.28;98815.94;5131208;27;20023;-64
2023/10/14 10:55:31;;;;;;;8.93;5.15;;;;;;;13.77;61.17;98819.81;5132339;27;20425;-64
2023/10/14 10:58:03;;;;;;;10.93;4.18;;;;;;;13.86;60.99;98824.16;5131927;27;20035;-64
2023/10/14 11:00:30;;;;;;;6.68;4.00;;;;;;;13.89;60.90;98817.59;5129520;27;20046;-65
2023/10/14 11:02:57;;;;;;;7.75;4.20;;;;;;;13.94;61.04;98815.25;5133281;27;20023;-64
2023/10/14 11:05:24;;;;;;;9.90;3.97;;;;;;;13.89;61.18;98796.91;5131038;27;20469;-64
2023/10/14 11:07:52;;;;;;;9.55;4.00;;;;;;;14.02;60.94;98804.44;5131640;27;20045;-65
2023/10/14 11:10:31;;;;;;;7.32;3.72;;;;;;;14.19;60.46;98813.31;5119162;27;20497;-63
2023/10/14 11:12:58;;;;;;;9.38;4.10;;;;;;;14.17;60.84;98807.28;5092024;28;20107;-63
2023/10/14 11:15:25;;;;;;;7.95;4.60;;;;;;;14.25;60.65;98819.03;5109102;28;20458;-64
2023/10/14 11:17:52;;;;;;;9.82;4.60;;;;;;;14.33;60.49;98805.56;5114143;28;20026;-65
2023/10/14 11:20:20;;;;;;;10.07;4.45;;;;;;;14.44;60.21;98832.09;5113907;27;20049;-65
2023/10/14 11:22:46;;;;;;;8.75;4.10;;;;;;;14.55;59.72;98812.03;5112467;28;20049;-64
2023/10/14 11:25:13;;;;;;;11.27;4.03;;;;;;;14.71;59.34;98815.69;5114614;27;20039;-64
2023/10/14 11:27:41;;;;;;;8.52;3.83;;;;;;;14.90;58.66;98809.03;5112852;28;20042;-64
2023/10/14 11:30:11;;;;;;;10.65;4.10;;;;;;;14.99;58.22;98778.34;5118140;27;20114;-62
2023/10/14 11:32:36;;;;;;;8.85;4.28;;;;;;;15.12;58.04;98801.16;5129799;27;20168;-63
2023/10/14 11:35:03;;;;;;;10.10;4.07;;;;;;;15.07;57.92;98767.47;5113029;28;20106;-64
2023/10/14 11:37:36;;;;;;;12.50;4.45;;;;;;;15.14;58.01;98785.63;5113299;28;20119;-65
2023/10/14 11:40:13;;;;;;;9.05;4.70;;;;;;;15.16;58.51;98786.28;5122085;28;20044;-63
2023/10/14 11:42:40;;;;;;;8.85;4.32;;;;;;;14.97;59.02;98788.47;5128281;27;20057;-65
2023/10/14 11:45:07;;;;;;;7.75;4.35;;;;;;;14.87;58.95;98793.22;5114357;27;20031;-62
2023/10/14 11:47:37;;;;;;;8.10;4.03;;;;;;;14.76;59.41;98786.38;5112626;28;20040;-63
2023/10/14 11:50:13;;;;;;;7.43;4.18;;;;;;;14.76;59.45;98792.59;5125377;28;20080;-66
2023/10/14 11:52:42;;;;;;;8.85;4.32;;;;;;;14.75;59.29;98793.63;5133230;27;20031;-63
2023/10/14 11:55:14;;;;;;;10.88;4.47;;;;;;;14.63;59.82;98786.91;5131260;28;20096;-65
2023/10/14 11:57:44;;;;;;;9.68;3.92;;;;;;;14.64;59.71;98775.97;5131261;27;20088;-64
2023/10/14 12:00:16;;;;;;;9.98;4.53;;;;;;;14.59;60.04;98782.88;5120955;27;20034;-65
2023/10/14 12:02:47;;;;;;;10.07;4.25;;;;;;;14.61;59.84;98770.94;5118971;28;20038;-65
2023/10/14 12:05:16;;;;;;;11.15;4.30;;;;;;;14.52;59.80;98766.59;5126491;27;20105;-65
2023/10/14 12:07:47;;;;;;;10.82;4.55;;;;;;;14.56;59.94;98769.78;5116819;28;20032;-64
2023/10/14 12:10:13;;;;;;;12.25;4.55;;;;;;;14.47;60.28;98761.75;5126294;28;20096;-65
2023/10/14 12:12:39;;;;;;;12.52;4.28;;;;;;;14.57;60.15;98766.06;5127247;28;20031;-65
2023/10/14 12:15:08;;;;;;;10.55;4.97;;;;;;;14.59;60.26;98758.66;5127423;27;20087;-65
2023/10/14 12:17:35;;;;;;;13.05;4.82;;;;;;;14.61;59.94;98767.38;5116467;28;20027;-67
2023/10/14 12:20:10;;;;;;;8.50;4.65;;;;;;;14.46;60.21;98741.19;5116719;27;20115;-64